International Virtual Aviation Organisation

Russian Federation and Kazakhstan MCD

 

Карточка аэропорта UUYY

Внимание!
Информация на этой странице в стадии наполнения.
Если вы не увидели какой-то информации, или заметили неточность - пожалуйста сообщите нам!
Спасибо!
Команда RU-STAFF
Название аэропортаСыктывкар
Название аэропорта (англ.)Syktyvkar
Превышение341 ft. (103.9 m.)
Координаты61°38.502', 50°50.298'
Высота перехода700
Эшелон переходаQFE>760: FL40; 760>QFE>733: FL50; 733 >QFE :FL60;
Коды ответчика3130-3134, 5752-5757, 5770-5777, 6701-6717
Зона ОрВДСыктывкар РПИ (UUYY)
Данные METARUUYY 191600Z 12003MPS 9999 SCT010 BKN016CB 17/16 Q1019 R36/29//51 NOSIG RMK QFE755/1006
Проноз погоды (TAF)UUYY 191400Z 1915/2015 10003G08MPS 6000 -SHRA BKN011 BKN018CB TEMPO 1915/1918 12005G12MPS 2000 TSRA BR BKN005 BKN015CB TEMPO 1918/1923 12005G14MPS 0300 +TSRA FG BKN002 BKN011CB TEMPO 1923/2006 VRB01MPS 0300 FG VV002 TEMPO 2006/2015 VRB01MPS 3100 -SHRA BR FEW005 BKN015CB
NOTAMshow/hide NOTAM
AWOS   TABLE

Информация о ВПП

ВПП Длина ВПП (м.) Покрытие Курс ВПП Частота ILS
012500Асфальтобетон6108.3
192500Асфальтобетон186111.7

Диспетчерские позиции

Позывной Наименование органа УВД Частота
UUYY_TWRСивкар-Старт124.600
UUYY_R_APPСивкар-Круг124.600



Спутниковое изображение